createdAt,value
2019-06-08T03:49:10.688Z,76.50
2019-06-08T03:51:48.599Z,76.30
2019-06-08T03:54:21.299Z,77.30
2019-06-08T03:56:55.472Z,76.40
2019-06-08T03:59:30.287Z,77.40
2019-06-08T04:02:04.448Z,76.50
2019-06-08T04:04:40.283Z,77.40
2019-06-08T04:07:15.856Z,75.50
2019-06-08T04:09:50.835Z,76.60
2019-06-08T04:12:25.782Z,75.50
2019-06-08T04:15:00.790Z,76.40
2019-06-08T04:17:35.127Z,76.80
2019-06-08T04:20:12.091Z,78.50
2019-06-08T04:22:47.497Z,77.90
2019-06-08T04:25:21.721Z,76.70
2019-06-08T04:27:56.516Z,78.90
2019-06-08T04:30:30.722Z,77.40
2019-06-08T04:33:05.494Z,79.50
2019-06-08T04:35:42.555Z,78.10
2019-06-08T04:38:17.053Z,77.60
2019-06-08T04:40:51.255Z,77.50
2019-06-08T04:43:26.405Z,80.30
2019-06-08T04:46:01.397Z,78.00
2019-06-08T04:48:35.569Z,79.50
2019-06-08T04:51:10.398Z,80.70
2019-06-08T04:53:47.064Z,78.60
2019-06-08T04:56:22.031Z,81.70
2019-06-08T04:58:56.317Z,79.70
2019-06-08T05:01:31.137Z,81.90
2019-06-08T05:04:05.312Z,79.80
2019-06-08T05:06:41.036Z,81.70
2019-06-08T05:09:16.070Z,79.50
2019-06-08T05:11:51.049Z,80.60
2019-06-08T05:14:28.628Z,79.80
2019-06-08T05:17:03.616Z,79.70
2019-06-08T05:19:39.130Z,79.60
2019-06-08T05:22:14.169Z,81.00
2019-06-08T05:24:49.879Z,78.70
2019-06-08T05:27:24.870Z,80.90
2019-06-08T05:29:59.829Z,79.40
2019-06-08T05:32:34.808Z,78.50
2019-06-08T05:35:09.278Z,78.80
2019-06-08T05:37:44.076Z,79.40
2019-06-08T05:40:18.465Z,77.10
2019-06-08T05:42:53.251Z,77.50
2019-06-08T05:45:30.269Z,75.80
2019-06-08T05:48:05.273Z,76.40
2019-06-08T05:50:54.953Z,75.60
2019-06-08T05:53:16.861Z,75.60
2019-06-08T05:55:51.077Z,75.30
2019-06-08T05:58:25.863Z,75.30
2019-06-08T06:01:01.901Z,75.40
2019-06-08T06:03:36.073Z,74.80
2019-06-08T06:06:10.903Z,75.20
2019-06-08T06:08:46.658Z,75.00
2019-06-08T06:11:22.729Z,74.60
2019-06-08T06:13:56.900Z,72.90
2019-06-08T06:16:31.725Z,72.40
2019-06-08T06:19:05.911Z,71.60
2019-06-08T06:21:40.975Z,72.80
2019-06-08T06:24:16.951Z,71.00
2019-06-08T06:26:51.627Z,70.20
2019-06-08T06:29:26.550Z,68.70
2019-06-08T06:32:00.765Z,68.50
2019-06-08T06:34:35.541Z,69.40
2019-06-08T06:37:09.776Z,69.60
2019-06-08T06:39:45.853Z,68.40
2019-06-08T06:42:24.432Z,68.50
2019-06-08T06:44:57.527Z,67.60
2019-06-08T06:47:31.717Z,67.20
2019-06-08T06:50:07.041Z,65.70
2019-06-08T06:52:46.682Z,66.60
2019-06-08T06:55:25.095Z,65.50
2019-06-08T06:57:58.685Z,65.20
2019-06-08T07:00:34.050Z,64.90
2019-06-08T07:03:10.050Z,63.70
2019-06-08T07:05:46.097Z,63.00
2019-06-08T07:08:22.181Z,63.30
2019-06-08T07:10:58.468Z,64.40
2019-06-08T07:13:33.544Z,63.80
2019-06-08T07:16:17.930Z,63.90
2019-06-08T07:18:44.279Z,63.20
2019-06-08T07:21:19.432Z,63.80
2019-06-08T07:23:56.138Z,63.90
2019-06-08T07:26:31.344Z,63.80
2019-06-08T07:29:05.705Z,62.60
2019-06-08T07:31:40.637Z,61.60
2019-06-08T07:34:15.736Z,62.70
2019-06-08T07:36:51.301Z,62.00
2019-06-08T07:39:26.291Z,61.40
2019-06-08T07:42:02.460Z,62.20
2019-06-08T07:44:37.285Z,57.80
2019-06-08T07:47:12.675Z,58.40
2019-06-08T07:49:49.200Z,56.50
2019-06-08T07:52:24.322Z,54.70
2019-06-08T07:54:59.407Z,54.90
2019-06-08T07:57:34.384Z,54.60
2019-06-08T08:00:10.044Z,55.50
2019-06-08T08:02:45.069Z,53.40
2019-06-08T08:05:20.064Z,53.70
2019-06-08T08:07:55.115Z,52.70
2019-06-08T08:10:30.075Z,54.90
2019-06-08T08:13:06.253Z,53.10
2019-06-08T08:15:41.289Z,53.30
2019-06-08T08:18:16.292Z,53.60
2019-06-08T08:20:52.814Z,54.20
2019-06-08T08:23:28.177Z,51.10
2019-06-08T08:26:03.086Z,50.90
2019-06-08T08:28:38.076Z,50.00
2019-06-08T08:31:15.257Z,52.30
2019-06-08T08:33:52.538Z,51.20
2019-06-08T08:36:29.091Z,52.10
2019-06-08T08:39:09.154Z,53.00
2019-06-08T08:41:44.510Z,53.10
2019-06-08T08:44:20.577Z,52.00
2019-06-08T08:46:56.992Z,52.90
2019-06-08T08:49:32.430Z,52.50
2019-06-08T08:52:08.784Z,53.10
2019-06-08T08:54:44.137Z,51.90
2019-06-08T08:57:19.378Z,51.80
2019-06-08T08:59:56.275Z,53.80
2019-06-08T09:02:31.287Z,53.60
2019-06-08T09:05:08.668Z,53.80
2019-06-08T09:07:44.325Z,53.10
2019-06-08T09:10:20.176Z,53.90
2019-06-08T09:12:56.442Z,54.70
2019-06-08T09:15:31.962Z,54.80
2019-06-08T09:18:08.080Z,53.30
2019-06-08T09:20:43.335Z,53.70
2019-06-08T09:23:21.580Z,54.10
2019-06-08T09:26:00.446Z,53.60
2019-06-08T09:28:31.616Z,53.10
2019-06-08T09:31:08.711Z,53.70
2019-06-08T09:33:53.321Z,54.10
2019-06-08T09:36:20.222Z,53.50
2019-06-08T09:38:59.596Z,54.40
2019-06-08T09:41:31.813Z,53.60
2019-06-08T09:44:08.709Z,52.40
2019-06-08T09:46:43.465Z,53.40
2019-06-08T09:49:18.956Z,53.90
2019-06-08T09:51:55.352Z,54.20
2019-06-08T09:54:30.821Z,52.70
2019-06-08T09:57:08.804Z,52.40
2019-06-08T09:59:43.369Z,53.70
2019-06-08T10:02:18.632Z,53.90
2019-06-08T10:04:54.419Z,53.70
2019-06-08T10:07:31.356Z,53.70
2019-06-08T10:10:09.610Z,52.30
2019-06-08T10:12:43.950Z,52.30
2019-06-08T10:15:19.691Z,49.80
2019-06-08T10:17:54.906Z,48.00
2019-06-08T10:20:30.912Z,46.60
2019-06-08T10:23:24.407Z,46.50
2019-06-08T10:25:44.136Z,44.80
2019-06-08T10:28:21.792Z,44.10
2019-06-08T10:30:59.658Z,44.30
2019-06-08T10:33:32.990Z,43.30
2019-06-08T10:36:12.251Z,45.80
2019-06-08T10:38:47.773Z,46.50
2019-06-08T10:41:21.975Z,47.60
2019-06-08T10:43:57.461Z,48.60
2019-06-08T10:46:32.808Z,48.60
2019-06-08T10:49:11.864Z,49.40
2019-06-08T10:51:45.110Z,49.80
2019-06-08T10:54:20.363Z,48.70
2019-06-08T10:56:57.473Z,49.00
2019-06-08T10:59:32.680Z,49.60
2019-06-08T11:02:13.460Z,49.90
2019-06-08T11:04:44.930Z,49.10
2019-06-08T11:07:19.946Z,47.70
2019-06-08T11:09:55.072Z,47.30
2019-06-08T11:12:30.172Z,49.50
2019-06-08T11:15:09.269Z,49.80
2019-06-08T11:17:42.942Z,49.30
2019-06-08T11:20:17.987Z,49.60
2019-06-08T11:22:53.038Z,49.30
2019-06-08T11:25:28.221Z,47.30
2019-06-08T11:28:03.823Z,47.40
2019-06-08T11:30:38.942Z,46.10
2019-06-08T11:33:15.083Z,43.20
2019-06-08T11:35:50.077Z,43.40
2019-06-08T11:38:25.095Z,45.70
2019-06-08T11:41:00.978Z,43.60
2019-06-08T11:43:38.114Z,41.50
2019-06-08T11:46:13.254Z,41.10
2019-06-08T11:48:48.547Z,41.00
2019-06-08T11:51:29.428Z,37.30
2019-06-08T11:54:01.105Z,39.40
2019-06-08T11:56:37.595Z,35.20
2019-06-08T11:59:14.432Z,37.60
2019-06-08T12:01:50.536Z,38.70
2019-06-08T12:04:25.564Z,36.20
2019-06-08T12:07:00.549Z,36.40
2019-06-08T12:09:35.540Z,38.20
2019-06-08T12:12:16.176Z,39.70
2019-06-08T12:14:47.678Z,37.80
2019-06-08T12:17:23.251Z,35.90
2019-06-08T12:19:58.306Z,39.30
2019-06-08T12:22:33.316Z,30.10
2019-06-08T12:25:08.512Z,32.10
2019-06-08T12:27:43.592Z,30.60
2019-06-08T12:30:25.911Z,34.40
2019-06-08T12:32:58.149Z,34.80
2019-06-08T12:35:33.196Z,32.60
2019-06-08T12:38:09.924Z,30.00
2019-06-08T12:40:44.947Z,34.30
2019-06-08T12:43:21.266Z,33.60
2019-06-08T12:45:58.059Z,33.50
2019-06-08T12:48:33.178Z,33.50
2019-06-08T12:51:10.538Z,34.40
2019-06-08T12:53:44.844Z,33.90
2019-06-08T12:56:23.931Z,32.00
2019-06-08T12:58:57.914Z,33.60
2019-06-08T13:01:33.160Z,35.50
2019-06-08T13:04:09.627Z,36.40
2019-06-08T13:06:44.734Z,33.60
2019-06-08T13:09:20.667Z,32.70
2019-06-08T13:11:57.177Z,33.70
2019-06-08T13:14:32.674Z,32.00
2019-06-08T13:17:08.716Z,31.60
2019-06-08T13:19:44.492Z,29.90
2019-06-08T13:22:25.912Z,32.50
2019-06-08T13:24:56.253Z,30.00
2019-06-08T13:27:31.205Z,28.80
2019-06-08T13:30:07.530Z,29.00
2019-06-08T13:32:42.700Z,32.40
2019-06-08T13:35:20.728Z,29.80
2019-06-08T13:37:57.113Z,28.40
2019-06-08T13:40:31.412Z,31.10
2019-06-08T13:43:08.128Z,30.70
2019-06-08T13:45:43.071Z,26.90
2019-06-08T13:48:18.957Z,28.70
2019-06-08T13:50:54.792Z,30.90
2019-06-08T13:53:31.816Z,26.10
2019-06-08T13:56:07.821Z,28.20
2019-06-08T13:58:43.053Z,28.50
2019-06-08T14:01:18.005Z,26.70
2019-06-08T14:03:53.445Z,26.70
2019-06-08T14:06:28.641Z,28.90
2019-06-08T14:09:04.103Z,29.60
2019-06-08T14:11:39.450Z,27.30
2019-06-08T14:14:14.924Z,27.60
2019-06-08T14:16:50.661Z,28.90
2019-06-08T14:19:26.265Z,27.50
2019-06-08T14:22:02.447Z,26.40
2019-06-08T14:24:37.825Z,27.00
2019-06-08T14:27:13.906Z,29.70
2019-06-08T14:29:51.329Z,30.20
2019-06-08T14:32:25.968Z,28.40
2019-06-08T14:35:02.926Z,26.60
2019-06-08T14:37:38.076Z,29.80
2019-06-08T14:40:13.380Z,27.60
2019-06-08T14:42:48.730Z,26.50
2019-06-08T14:45:24.702Z,26.10
2019-06-08T14:47:59.812Z,25.30
2019-06-08T14:50:40.409Z,28.20
2019-06-08T14:53:12.033Z,24.80
2019-06-08T14:55:49.981Z,27.40
2019-06-08T14:58:27.315Z,27.00
2019-06-08T15:01:00.210Z,27.00
2019-06-08T15:03:35.162Z,25.50
2019-06-08T15:06:10.146Z,27.10
2019-06-08T15:08:45.160Z,24.10
2019-06-08T15:11:21.257Z,25.70
2019-06-08T15:13:58.054Z,24.60
2019-06-08T15:16:32.956Z,26.20
2019-06-08T15:19:08.111Z,27.10
2019-06-08T15:21:43.145Z,28.20
2019-06-08T15:24:18.678Z,26.70
2019-06-08T15:26:53.747Z,25.60
2019-06-08T15:29:30.696Z,26.20
2019-06-08T15:32:05.297Z,26.00
2019-06-08T15:34:41.935Z,27.30
2019-06-08T15:37:18.566Z,28.90
2019-06-08T15:39:53.801Z,30.50
2019-06-08T15:42:30.490Z,27.50
2019-06-08T15:45:08.617Z,29.00
2019-06-08T15:47:43.754Z,28.30
2019-06-08T15:50:18.864Z,29.40
2019-06-08T15:52:53.830Z,28.30
2019-06-08T15:55:31.361Z,29.90
2019-06-08T15:58:05.528Z,29.50
2019-06-08T16:00:40.672Z,29.10
2019-06-08T16:03:15.830Z,30.30
2019-06-08T16:05:50.815Z,29.90
2019-06-08T16:08:26.194Z,30.30
2019-06-08T16:11:01.425Z,30.70
2019-06-08T16:13:36.541Z,30.90
2019-06-08T16:16:11.491Z,32.00
2019-06-08T16:18:46.460Z,31.20
2019-06-08T16:21:23.115Z,31.40
2019-06-08T16:23:58.128Z,32.50
2019-06-08T16:26:33.784Z,31.90
2019-06-08T16:29:08.887Z,32.40
2019-06-08T16:31:43.851Z,33.40
2019-06-08T16:34:18.830Z,34.70
2019-06-08T16:36:53.869Z,33.90
2019-06-08T16:39:28.867Z,33.50
2019-06-08T16:42:03.865Z,33.40
2019-06-08T16:44:38.820Z,32.80
2019-06-08T16:47:13.857Z,33.50
2019-06-08T16:49:49.884Z,32.50
2019-06-08T16:52:24.854Z,34.40
2019-06-08T16:54:59.819Z,31.70
2019-06-08T16:57:37.848Z,32.00
2019-06-08T17:00:30.327Z,33.30
2019-06-08T17:02:48.377Z,31.50
2019-06-08T17:05:23.324Z,32.10
2019-06-08T17:07:58.299Z,31.60
2019-06-08T17:10:34.580Z,32.80
2019-06-08T17:13:11.274Z,32.90
2019-06-08T17:15:46.644Z,32.90
2019-06-08T17:18:21.685Z,33.50
2019-06-08T17:20:56.635Z,33.00
2019-06-08T17:23:32.410Z,32.90
2019-06-08T17:26:08.418Z,33.20
2019-06-08T17:28:43.415Z,33.70
2019-06-08T17:31:18.379Z,33.90
2019-06-08T17:33:53.368Z,34.20
2019-06-08T17:36:28.479Z,33.70
2019-06-08T17:39:05.254Z,34.60
2019-06-08T17:41:42.576Z,34.20
2019-06-08T17:44:17.780Z,34.50
2019-06-08T17:46:52.984Z,36.00
2019-06-08T17:49:27.980Z,35.60
2019-06-08T17:52:03.246Z,35.60
2019-06-08T17:54:39.044Z,36.00
2019-06-08T17:57:14.188Z,35.30
2019-06-08T17:59:49.212Z,35.90
2019-06-08T18:02:28.146Z,36.00
2019-06-08T18:05:02.053Z,36.00
2019-06-08T18:07:39.049Z,36.60
2019-06-08T18:10:14.672Z,36.40
2019-06-08T18:12:50.114Z,36.60
2019-06-08T18:15:28.168Z,37.00
2019-06-08T18:18:03.153Z,37.30
2019-06-08T18:20:40.477Z,37.20
2019-06-08T18:23:17.196Z,37.30
2019-06-08T18:25:53.004Z,37.40
2019-06-08T18:28:28.292Z,37.50
2019-06-08T18:31:04.769Z,37.80
2019-06-08T18:33:43.389Z,37.50
2019-06-08T18:36:17.431Z,38.10
2019-06-08T18:38:52.578Z,37.90
2019-06-08T18:41:27.617Z,38.00
2019-06-08T18:44:02.624Z,38.30
2019-06-08T18:46:39.355Z,38.80
2019-06-08T18:49:14.923Z,39.00
2019-06-08T18:51:52.787Z,39.30
2019-06-08T18:54:28.167Z,39.50
2019-06-08T18:57:05.992Z,39.40
2019-06-08T18:59:44.357Z,39.60
2019-06-08T19:02:18.627Z,39.90
2019-06-08T19:04:57.208Z,41.10
2019-06-08T19:07:32.340Z,40.30
2019-06-08T19:10:08.606Z,40.60
2019-06-08T19:12:44.788Z,40.60
2019-06-08T19:15:24.100Z,40.80
2019-06-08T19:17:59.441Z,40.80
2019-06-08T19:20:35.086Z,41.00
2019-06-08T19:23:12.683Z,41.20
2019-06-08T19:28:35.774Z,40.70
2019-06-08T19:31:02.011Z,41.80
2019-06-08T19:33:38.937Z,43.10
2019-06-08T19:36:16.997Z,42.90
2019-06-08T19:38:54.759Z,43.00
2019-06-08T19:41:29.899Z,44.30
2019-06-08T19:44:07.551Z,45.10
2019-06-08T19:46:47.598Z,45.20
2019-06-08T19:49:23.708Z,45.90
2019-06-08T19:51:59.352Z,46.60
2019-06-08T19:54:37.703Z,47.10
2019-06-08T19:57:12.389Z,47.60
2019-06-08T19:59:48.039Z,48.10
2019-06-08T20:02:23.583Z,48.80
2019-06-08T20:04:59.151Z,49.40
2019-06-08T20:07:37.602Z,49.70
2019-06-08T20:10:14.131Z,50.20
2019-06-08T20:12:50.974Z,50.80
2019-06-08T20:15:28.687Z,51.10
2019-06-08T20:18:04.115Z,50.10
2019-06-08T20:20:41.940Z,49.50
2019-06-08T20:23:18.132Z,49.20
2019-06-08T20:25:54.764Z,48.50
2019-06-08T20:28:30.511Z,48.60
2019-06-08T20:31:07.417Z,48.50
2019-06-08T20:33:43.855Z,49.30
2019-06-08T20:36:19.399Z,49.50
2019-06-08T20:38:54.843Z,49.60
2019-06-08T20:41:30.196Z,49.90
2019-06-08T20:44:08.283Z,50.40
2019-06-08T20:46:42.708Z,50.00
2019-06-08T20:49:19.519Z,50.10
2019-06-08T20:51:57.037Z,50.30
2019-06-08T20:54:36.615Z,50.60
2019-06-08T20:57:10.851Z,50.30
2019-06-08T20:59:48.134Z,51.10
2019-06-08T21:02:28.219Z,51.20
2019-06-08T21:05:00.643Z,51.60
2019-06-08T21:07:35.984Z,51.50
2019-06-08T21:10:11.427Z,51.90
2019-06-08T21:12:49.602Z,52.00
2019-06-08T21:15:27.260Z,52.20
2019-06-08T21:18:02.053Z,52.50
2019-06-08T21:20:37.753Z,52.60
2019-06-08T21:23:13.560Z,52.40
2019-06-08T21:25:50.738Z,52.70
2019-06-08T21:28:27.979Z,52.60
